sensor_id;sensor_type;location;lat;lon;timestamp;pressure;altitude;pressure_sealevel;temperature
13570;BMP180;6856;51.460;7.158;2023-06-26T00:00:38;100219.00;;;28.60
13570;BMP180;6856;51.460;7.158;2023-06-26T00:03:12;100217.00;;;28.60
13570;BMP180;6856;51.460;7.158;2023-06-26T00:05:47;100218.00;;;28.60
13570;BMP180;6856;51.460;7.158;2023-06-26T00:08:24;100214.00;;;28.60
13570;BMP180;6856;51.460;7.158;2023-06-26T00:10:58;100214.00;;;28.50
13570;BMP180;6856;51.460;7.158;2023-06-26T00:13:32;100222.00;;;28.50
13570;BMP180;6856;51.460;7.158;2023-06-26T00:16:05;100221.00;;;28.50
13570;BMP180;6856;51.460;7.158;2023-06-26T00:18:39;100216.00;;;28.50
13570;BMP180;6856;51.460;7.158;2023-06-26T00:21:13;100208.00;;;28.40
13570;BMP180;6856;51.460;7.158;2023-06-26T00:23:49;100214.00;;;28.40
13570;BMP180;6856;51.460;7.158;2023-06-26T00:26:22;100209.00;;;28.30
13570;BMP180;6856;51.460;7.158;2023-06-26T00:28:57;100210.00;;;28.30
13570;BMP180;6856;51.460;7.158;2023-06-26T00:31:31;100215.00;;;28.30
13570;BMP180;6856;51.460;7.158;2023-06-26T00:34:05;100204.00;;;28.30
13570;BMP180;6856;51.460;7.158;2023-06-26T00:36:38;100209.00;;;28.30
13570;BMP180;6856;51.460;7.158;2023-06-26T00:39:17;100199.00;;;28.20
13570;BMP180;6856;51.460;7.158;2023-06-26T00:41:51;100207.00;;;28.20
13570;BMP180;6856;51.460;7.158;2023-06-26T00:44:27;100203.00;;;28.20
13570;BMP180;6856;51.460;7.158;2023-06-26T00:47:01;100202.00;;;28.20
13570;BMP180;6856;51.460;7.158;2023-06-26T00:49:35;100206.00;;;28.20
13570;BMP180;6856;51.460;7.158;2023-06-26T00:52:09;100198.00;;;28.10
13570;BMP180;6856;51.460;7.158;2023-06-26T00:54:45;100198.00;;;28.10
13570;BMP180;6856;51.460;7.158;2023-06-26T00:57:19;100195.00;;;28.10
13570;BMP180;6856;51.460;7.158;2023-06-26T00:59:53;100191.00;;;28.10
13570;BMP180;6856;51.460;7.158;2023-06-26T01:02:27;100189.00;;;28.10
13570;BMP180;6856;51.460;7.158;2023-06-26T01:05:07;100178.00;;;28.10
13570;BMP180;6856;51.460;7.158;2023-06-26T01:07:45;100188.00;;;28.00
13570;BMP180;6856;51.460;7.158;2023-06-26T01:10:20;100181.00;;;28.00
13570;BMP180;6856;51.460;7.158;2023-06-26T01:12:55;100180.00;;;28.00
13570;BMP180;6856;51.460;7.158;2023-06-26T01:15:29;100184.00;;;27.90
13570;BMP180;6856;51.460;7.158;2023-06-26T01:18:04;100169.00;;;27.90
13570;BMP180;6856;51.460;7.158;2023-06-26T01:20:41;100178.00;;;27.90
13570;BMP180;6856;51.460;7.158;2023-06-26T01:23:22;100178.00;;;27.90
13570;BMP180;6856;51.460;7.158;2023-06-26T01:26:17;100173.00;;;27.80
13570;BMP180;6856;51.460;7.158;2023-06-26T01:28:53;100168.00;;;27.80
13570;BMP180;6856;51.460;7.158;2023-06-26T01:31:29;100163.00;;;27.80
13570;BMP180;6856;51.460;7.158;2023-06-26T01:34:04;100171.00;;;27.80
13570;BMP180;6856;51.460;7.158;2023-06-26T01:36:38;100149.00;;;27.80
13570;BMP180;6856;51.460;7.158;2023-06-26T01:39:17;100155.00;;;27.70
13570;BMP180;6856;51.460;7.158;2023-06-26T01:41:53;100159.00;;;27.70
13570;BMP180;6856;51.460;7.158;2023-06-26T01:44:29;100155.00;;;27.70
13570;BMP180;6856;51.460;7.158;2023-06-26T01:47:05;100152.00;;;27.70
13570;BMP180;6856;51.460;7.158;2023-06-26T01:49:47;100158.00;;;27.70
13570;BMP180;6856;51.460;7.158;2023-06-26T01:52:31;100166.00;;;27.60
13570;BMP180;6856;51.460;7.158;2023-06-26T01:55:22;100157.00;;;27.60
13570;BMP180;6856;51.460;7.158;2023-06-26T01:57:59;100154.00;;;27.60
13570;BMP180;6856;51.460;7.158;2023-06-26T02:00:37;100159.00;;;27.50
13570;BMP180;6856;51.460;7.158;2023-06-26T02:03:11;100146.00;;;27.50
13570;BMP180;6856;51.460;7.158;2023-06-26T02:05:46;100149.00;;;27.50
13570;BMP180;6856;51.460;7.158;2023-06-26T02:08:20;100157.00;;;27.50
13570;BMP180;6856;51.460;7.158;2023-06-26T02:10:55;100155.00;;;27.50
13570;BMP180;6856;51.460;7.158;2023-06-26T02:13:30;100152.00;;;27.50
13570;BMP180;6856;51.460;7.158;2023-06-26T02:16:04;100150.00;;;27.40
13570;BMP180;6856;51.460;7.158;2023-06-26T02:18:37;100158.00;;;27.40
13570;BMP180;6856;51.460;7.158;2023-06-26T02:21:13;100157.00;;;27.40
13570;BMP180;6856;51.460;7.158;2023-06-26T02:23:47;100153.00;;;27.40
13570;BMP180;6856;51.460;7.158;2023-06-26T02:26:21;100146.00;;;27.30
13570;BMP180;6856;51.460;7.158;2023-06-26T02:28:56;100153.00;;;27.30
13570;BMP180;6856;51.460;7.158;2023-06-26T02:31:30;100138.00;;;27.30
13570;BMP180;6856;51.460;7.158;2023-06-26T02:34:04;100160.00;;;27.30
13570;BMP180;6856;51.460;7.158;2023-06-26T02:36:39;100157.00;;;27.30
13570;BMP180;6856;51.460;7.158;2023-06-26T02:39:13;100151.00;;;27.20
13570;BMP180;6856;51.460;7.158;2023-06-26T02:41:48;100156.00;;;27.20
13570;BMP180;6856;51.460;7.158;2023-06-26T02:44:23;100163.00;;;27.20
13570;BMP180;6856;51.460;7.158;2023-06-26T02:46:57;100170.00;;;27.20
13570;BMP180;6856;51.460;7.158;2023-06-26T02:49:31;100165.00;;;27.20
13570;BMP180;6856;51.460;7.158;2023-06-26T02:52:06;100149.00;;;27.20
13570;BMP180;6856;51.460;7.158;2023-06-26T02:54:40;100161.00;;;27.20
13570;BMP180;6856;51.460;7.158;2023-06-26T02:57:14;100169.00;;;27.20
13570;BMP180;6856;51.460;7.158;2023-06-26T02:59:51;100170.00;;;27.20
13570;BMP180;6856;51.460;7.158;2023-06-26T03:02:25;100164.00;;;27.20
13570;BMP180;6856;51.460;7.158;2023-06-26T03:05:00;100169.00;;;27.10
13570;BMP180;6856;51.460;7.158;2023-06-26T03:07:35;100176.00;;;27.10
13570;BMP180;6856;51.460;7.158;2023-06-26T03:10:09;100171.00;;;27.10
13570;BMP180;6856;51.460;7.158;2023-06-26T03:12:43;100177.00;;;27.10
13570;BMP180;6856;51.460;7.158;2023-06-26T03:15:18;100174.00;;;27.00
13570;BMP180;6856;51.460;7.158;2023-06-26T03:17:52;100180.00;;;27.00
13570;BMP180;6856;51.460;7.158;2023-06-26T03:20:26;100186.00;;;27.00
13570;BMP180;6856;51.460;7.158;2023-06-26T03:23:00;100186.00;;;26.90
13570;BMP180;6856;51.460;7.158;2023-06-26T03:25:34;100190.00;;;26.90
13570;BMP180;6856;51.460;7.158;2023-06-26T03:28:08;100196.00;;;26.90
13570;BMP180;6856;51.460;7.158;2023-06-26T03:30:43;100195.00;;;26.90
13570;BMP180;6856;51.460;7.158;2023-06-26T03:33:17;100200.00;;;26.90
13570;BMP180;6856;51.460;7.158;2023-06-26T03:35:50;100209.00;;;26.80
13570;BMP180;6856;51.460;7.158;2023-06-26T03:38:25;100209.00;;;26.80
13570;BMP180;6856;51.460;7.158;2023-06-26T03:40:59;100203.00;;;26.80
13570;BMP180;6856;51.460;7.158;2023-06-26T03:43:33;100203.00;;;26.80
13570;BMP180;6856;51.460;7.158;2023-06-26T03:46:08;100206.00;;;26.80
13570;BMP180;6856;51.460;7.158;2023-06-26T03:48:42;100211.00;;;26.70
13570;BMP180;6856;51.460;7.158;2023-06-26T03:51:16;100215.00;;;26.70
13570;BMP180;6856;51.460;7.158;2023-06-26T03:53:50;100220.00;;;26.70
13570;BMP180;6856;51.460;7.158;2023-06-26T03:56:24;100220.00;;;26.70
13570;BMP180;6856;51.460;7.158;2023-06-26T03:58:57;100215.00;;;26.70
13570;BMP180;6856;51.460;7.158;2023-06-26T04:01:33;100193.00;;;26.60
13570;BMP180;6856;51.460;7.158;2023-06-26T04:04:07;100216.00;;;26.60
13570;BMP180;6856;51.460;7.158;2023-06-26T04:06:42;100221.00;;;26.60
13570;BMP180;6856;51.460;7.158;2023-06-26T04:09:18;100215.00;;;26.60
13570;BMP180;6856;51.460;7.158;2023-06-26T04:11:51;100223.00;;;26.60
13570;BMP180;6856;51.460;7.158;2023-06-26T04:14:25;100217.00;;;26.50
13570;BMP180;6856;51.460;7.158;2023-06-26T04:17:01;100229.00;;;26.50
13570;BMP180;6856;51.460;7.158;2023-06-26T04:19:35;100236.00;;;26.50
13570;BMP180;6856;51.460;7.158;2023-06-26T04:22:09;100246.00;;;26.50
13570;BMP180;6856;51.460;7.158;2023-06-26T04:24:43;100250.00;;;26.50
13570;BMP180;6856;51.460;7.158;2023-06-26T04:27:18;100251.00;;;26.50
13570;BMP180;6856;51.460;7.158;2023-06-26T04:29:52;100243.00;;;26.40
13570;BMP180;6856;51.460;7.158;2023-06-26T04:32:28;100256.00;;;26.40
13570;BMP180;6856;51.460;7.158;2023-06-26T04:35:02;100255.00;;;26.40
13570;BMP180;6856;51.460;7.158;2023-06-26T04:37:35;100250.00;;;26.30
13570;BMP180;6856;51.460;7.158;2023-06-26T04:40:11;100257.00;;;26.30
13570;BMP180;6856;51.460;7.158;2023-06-26T04:42:46;100249.00;;;26.30
13570;BMP180;6856;51.460;7.158;2023-06-26T04:45:19;100266.00;;;26.30
13570;BMP180;6856;51.460;7.158;2023-06-26T04:47:54;100264.00;;;26.30
13570;BMP180;6856;51.460;7.158;2023-06-26T04:50:30;100262.00;;;26.20
13570;BMP180;6856;51.460;7.158;2023-06-26T04:53:03;100262.00;;;26.30
13570;BMP180;6856;51.460;7.158;2023-06-26T04:55:37;100263.00;;;26.20
13570;BMP180;6856;51.460;7.158;2023-06-26T04:58:11;100271.00;;;26.20
13570;BMP180;6856;51.460;7.158;2023-06-26T05:00:45;100269.00;;;26.20
13570;BMP180;6856;51.460;7.158;2023-06-26T05:03:22;100266.00;;;26.20
13570;BMP180;6856;51.460;7.158;2023-06-26T05:05:56;100268.00;;;26.20
13570;BMP180;6856;51.460;7.158;2023-06-26T05:08:31;100266.00;;;26.20
13570;BMP180;6856;51.460;7.158;2023-06-26T05:11:05;100260.00;;;26.20
13570;BMP180;6856;51.460;7.158;2023-06-26T05:13:40;100273.00;;;26.20
13570;BMP180;6856;51.460;7.158;2023-06-26T05:16:14;100270.00;;;26.20
13570;BMP180;6856;51.460;7.158;2023-06-26T05:18:49;100273.00;;;26.20
13570;BMP180;6856;51.460;7.158;2023-06-26T05:21:24;100269.00;;;26.30
13570;BMP180;6856;51.460;7.158;2023-06-26T05:24:05;100270.00;;;26.30
13570;BMP180;6856;51.460;7.158;2023-06-26T05:26:40;100271.00;;;26.30
13570;BMP180;6856;51.460;7.158;2023-06-26T05:29:15;100276.00;;;26.30
13570;BMP180;6856;51.460;7.158;2023-06-26T05:31:51;100278.00;;;26.30
13570;BMP180;6856;51.460;7.158;2023-06-26T05:34:28;100275.00;;;26.30
13570;BMP180;6856;51.460;7.158;2023-06-26T05:37:07;100285.00;;;26.30
13570;BMP180;6856;51.460;7.158;2023-06-26T05:39:42;100296.00;;;26.30
13570;BMP180;6856;51.460;7.158;2023-06-26T05:42:17;100294.00;;;26.40
13570;BMP180;6856;51.460;7.158;2023-06-26T05:44:51;100297.00;;;26.40
13570;BMP180;6856;51.460;7.158;2023-06-26T05:47:25;100290.00;;;26.40
13570;BMP180;6856;51.460;7.158;2023-06-26T05:50:02;100298.00;;;26.40
13570;BMP180;6856;51.460;7.158;2023-06-26T05:52:37;100296.00;;;26.40
13570;BMP180;6856;51.460;7.158;2023-06-26T05:55:13;100301.00;;;26.40
13570;BMP180;6856;51.460;7.158;2023-06-26T05:57:48;100312.00;;;26.40
13570;BMP180;6856;51.460;7.158;2023-06-26T06:00:25;100318.00;;;26.40
13570;BMP180;6856;51.460;7.158;2023-06-26T06:03:01;100314.00;;;26.40
13570;BMP180;6856;51.460;7.158;2023-06-26T06:05:37;100307.00;;;26.40
13570;BMP180;6856;51.460;7.158;2023-06-26T06:08:13;100307.00;;;26.40
13570;BMP180;6856;51.460;7.158;2023-06-26T06:10:47;100308.00;;;26.40
13570;BMP180;6856;51.460;7.158;2023-06-26T06:13:20;100306.00;;;26.40
13570;BMP180;6856;51.460;7.158;2023-06-26T06:15:54;100317.00;;;26.40
13570;BMP180;6856;51.460;7.158;2023-06-26T06:18:29;100317.00;;;26.50
13570;BMP180;6856;51.460;7.158;2023-06-26T06:21:04;100288.00;;;26.40
13570;BMP180;6856;51.460;7.158;2023-06-26T06:23:38;100319.00;;;26.50
13570;BMP180;6856;51.460;7.158;2023-06-26T06:26:12;100338.00;;;26.50
13570;BMP180;6856;51.460;7.158;2023-06-26T06:28:46;100334.00;;;26.50
13570;BMP180;6856;51.460;7.158;2023-06-26T06:31:20;100334.00;;;26.50
13570;BMP180;6856;51.460;7.158;2023-06-26T06:33:54;100321.00;;;26.50
13570;BMP180;6856;51.460;7.158;2023-06-26T06:36:31;100326.00;;;26.50
13570;BMP180;6856;51.460;7.158;2023-06-26T06:39:05;100334.00;;;26.50
13570;BMP180;6856;51.460;7.158;2023-06-26T06:41:39;100341.00;;;26.50
13570;BMP180;6856;51.460;7.158;2023-06-26T06:44:14;100351.00;;;26.50
13570;BMP180;6856;51.460;7.158;2023-06-26T06:46:48;100350.00;;;26.50
13570;BMP180;6856;51.460;7.158;2023-06-26T06:49:22;100352.00;;;26.60
13570;BMP180;6856;51.460;7.158;2023-06-26T06:51:59;100350.00;;;26.50
13570;BMP180;6856;51.460;7.158;2023-06-26T06:54:52;100352.00;;;26.50
13570;BMP180;6856;51.460;7.158;2023-06-26T06:57:26;100359.00;;;26.50
13570;BMP180;6856;51.460;7.158;2023-06-26T07:00:00;100375.00;;;26.50
13570;BMP180;6856;51.460;7.158;2023-06-26T07:02:35;100366.00;;;26.50
13570;BMP180;6856;51.460;7.158;2023-06-26T07:05:10;100385.00;;;26.50
13570;BMP180;6856;51.460;7.158;2023-06-26T07:07:45;100393.00;;;26.50
13570;BMP180;6856;51.460;7.158;2023-06-26T07:10:19;100391.00;;;26.50
13570;BMP180;6856;51.460;7.158;2023-06-26T07:12:53;100394.00;;;26.50
13570;BMP180;6856;51.460;7.158;2023-06-26T07:15:27;100399.00;;;26.60
13570;BMP180;6856;51.460;7.158;2023-06-26T07:18:02;100391.00;;;26.50
13570;BMP180;6856;51.460;7.158;2023-06-26T07:20:36;100407.00;;;26.50
13570;BMP180;6856;51.460;7.158;2023-06-26T07:23:15;100395.00;;;26.50
13570;BMP180;6856;51.460;7.158;2023-06-26T07:25:50;100398.00;;;26.50
13570;BMP180;6856;51.460;7.158;2023-06-26T07:28:24;100406.00;;;26.50
13570;BMP180;6856;51.460;7.158;2023-06-26T07:30:58;100401.00;;;26.50
13570;BMP180;6856;51.460;7.158;2023-06-26T07:33:32;100403.00;;;26.60
13570;BMP180;6856;51.460;7.158;2023-06-26T07:36:08;100399.00;;;26.60
13570;BMP180;6856;51.460;7.158;2023-06-26T07:38:43;100397.00;;;26.60
13570;BMP180;6856;51.460;7.158;2023-06-26T07:41:18;100399.00;;;26.60
13570;BMP180;6856;51.460;7.158;2023-06-26T07:43:52;100388.00;;;26.60
13570;BMP180;6856;51.460;7.158;2023-06-26T07:46:26;100385.00;;;26.60
13570;BMP180;6856;51.460;7.158;2023-06-26T07:49:01;100383.00;;;26.70
13570;BMP180;6856;51.460;7.158;2023-06-26T07:51:35;100398.00;;;26.70
13570;BMP180;6856;51.460;7.158;2023-06-26T07:54:11;100393.00;;;26.80
13570;BMP180;6856;51.460;7.158;2023-06-26T07:56:55;100386.00;;;26.90
13570;BMP180;6856;51.460;7.158;2023-06-26T07:59:30;100394.00;;;26.90
13570;BMP180;6856;51.460;7.158;2023-06-26T08:02:04;100401.00;;;27.00
13570;BMP180;6856;51.460;7.158;2023-06-26T08:04:38;100401.00;;;27.00
13570;BMP180;6856;51.460;7.158;2023-06-26T08:07:13;100395.00;;;27.10
13570;BMP180;6856;51.460;7.158;2023-06-26T08:09:48;100415.00;;;27.10
13570;BMP180;6856;51.460;7.158;2023-06-26T08:12:22;100411.00;;;27.20
13570;BMP180;6856;51.460;7.158;2023-06-26T08:14:56;100422.00;;;27.30
13570;BMP180;6856;51.460;7.158;2023-06-26T08:17:30;100415.00;;;27.30
13570;BMP180;6856;51.460;7.158;2023-06-26T08:20:06;100425.00;;;27.30
13570;BMP180;6856;51.460;7.158;2023-06-26T08:22:41;100422.00;;;27.40
13570;BMP180;6856;51.460;7.158;2023-06-26T08:25:17;100426.00;;;27.40
13570;BMP180;6856;51.460;7.158;2023-06-26T08:27:52;100433.00;;;27.40
13570;BMP180;6856;51.460;7.158;2023-06-26T08:30:29;100448.00;;;27.40
13570;BMP180;6856;51.460;7.158;2023-06-26T08:33:08;100442.00;;;27.50
13570;BMP180;6856;51.460;7.158;2023-06-26T08:35:44;100454.00;;;27.40
13570;BMP180;6856;51.460;7.158;2023-06-26T08:38:22;100445.00;;;27.40
13570;BMP180;6856;51.460;7.158;2023-06-26T08:40:59;100449.00;;;27.40
13570;BMP180;6856;51.460;7.158;2023-06-26T08:43:36;100450.00;;;27.40
13570;BMP180;6856;51.460;7.158;2023-06-26T08:46:11;100455.00;;;27.40
13570;BMP180;6856;51.460;7.158;2023-06-26T08:48:49;100457.00;;;27.40
13570;BMP180;6856;51.460;7.158;2023-06-26T08:51:30;100459.00;;;27.40
13570;BMP180;6856;51.460;7.158;2023-06-26T08:54:11;100459.00;;;27.50
13570;BMP180;6856;51.460;7.158;2023-06-26T08:56:49;100465.00;;;27.50
13570;BMP180;6856;51.460;7.158;2023-06-26T08:59:23;100468.00;;;27.50
13570;BMP180;6856;51.460;7.158;2023-06-26T09:01:59;100469.00;;;27.50
13570;BMP180;6856;51.460;7.158;2023-06-26T09:04:34;100464.00;;;27.50
13570;BMP180;6856;51.460;7.158;2023-06-26T09:07:11;100468.00;;;27.50
13570;BMP180;6856;51.460;7.158;2023-06-26T09:09:45;100473.00;;;27.50
13570;BMP180;6856;51.460;7.158;2023-06-26T09:12:21;100474.00;;;27.60
13570;BMP180;6856;51.460;7.158;2023-06-26T09:14:56;100477.00;;;27.60
13570;BMP180;6856;51.460;7.158;2023-06-26T09:17:33;100480.00;;;27.60
13570;BMP180;6856;51.460;7.158;2023-06-26T09:20:08;100479.00;;;27.60
13570;BMP180;6856;51.460;7.158;2023-06-26T09:22:47;100476.00;;;27.60
13570;BMP180;6856;51.460;7.158;2023-06-26T09:25:21;100475.00;;;27.60
13570;BMP180;6856;51.460;7.158;2023-06-26T09:27:58;100453.00;;;27.70
13570;BMP180;6856;51.460;7.158;2023-06-26T09:30:37;100454.00;;;27.70
13570;BMP180;6856;51.460;7.158;2023-06-26T09:33:16;100460.00;;;27.70
13570;BMP180;6856;51.460;7.158;2023-06-26T09:35:50;100468.00;;;27.80
13570;BMP180;6856;51.460;7.158;2023-06-26T09:38:24;100470.00;;;27.80
13570;BMP180;6856;51.460;7.158;2023-06-26T09:41:00;100471.00;;;27.90
13570;BMP180;6856;51.460;7.158;2023-06-26T09:43:46;100484.00;;;27.90
13570;BMP180;6856;51.460;7.158;2023-06-26T09:46:26;100480.00;;;27.90
13570;BMP180;6856;51.460;7.158;2023-06-26T09:49:04;100481.00;;;27.90
13570;BMP180;6856;51.460;7.158;2023-06-26T09:51:41;100482.00;;;27.80
13570;BMP180;6856;51.460;7.158;2023-06-26T09:54:17;100482.00;;;27.90
13570;BMP180;6856;51.460;7.158;2023-06-26T09:56:51;100482.00;;;27.90
13570;BMP180;6856;51.460;7.158;2023-06-26T09:59:27;100482.00;;;28.00
13570;BMP180;6856;51.460;7.158;2023-06-26T10:02:02;100479.00;;;28.00
13570;BMP180;6856;51.460;7.158;2023-06-26T10:04:38;100494.00;;;28.10
13570;BMP180;6856;51.460;7.158;2023-06-26T10:07:13;100486.00;;;28.10
13570;BMP180;6856;51.460;7.158;2023-06-26T10:09:52;100493.00;;;28.20
13570;BMP180;6856;51.460;7.158;2023-06-26T10:12:31;100504.00;;;28.30
13570;BMP180;6856;51.460;7.158;2023-06-26T10:15:10;100489.00;;;28.30
13570;BMP180;6856;51.460;7.158;2023-06-26T10:17:48;100502.00;;;28.30
13570;BMP180;6856;51.460;7.158;2023-06-26T10:20:25;100499.00;;;28.30
13570;BMP180;6856;51.460;7.158;2023-06-26T10:23:02;100501.00;;;28.30
13570;BMP180;6856;51.460;7.158;2023-06-26T10:25:40;100495.00;;;28.30
13570;BMP180;6856;51.460;7.158;2023-06-26T10:28:18;100495.00;;;28.30
13570;BMP180;6856;51.460;7.158;2023-06-26T10:30:55;100498.00;;;28.30
13570;BMP180;6856;51.460;7.158;2023-06-26T10:33:30;100494.00;;;28.40
13570;BMP180;6856;51.460;7.158;2023-06-26T10:36:15;100507.00;;;28.40
13570;BMP180;6856;51.460;7.158;2023-06-26T10:38:52;100509.00;;;28.40
13570;BMP180;6856;51.460;7.158;2023-06-26T10:41:27;100504.00;;;28.40
13570;BMP180;6856;51.460;7.158;2023-06-26T10:44:08;100499.00;;;28.40
13570;BMP180;6856;51.460;7.158;2023-06-26T10:46:52;100501.00;;;28.40
13570;BMP180;6856;51.460;7.158;2023-06-26T10:49:29;100499.00;;;28.50
13570;BMP180;6856;51.460;7.158;2023-06-26T10:52:05;100512.00;;;28.50
13570;BMP180;6856;51.460;7.158;2023-06-26T10:54:39;100501.00;;;28.50
13570;BMP180;6856;51.460;7.158;2023-06-26T10:57:24;100494.00;;;28.50
13570;BMP180;6856;51.460;7.158;2023-06-26T11:00:13;100507.00;;;28.50
13570;BMP180;6856;51.460;7.158;2023-06-26T11:02:50;100511.00;;;28.50
13570;BMP180;6856;51.460;7.158;2023-06-26T11:05:26;100496.00;;;28.50
13570;BMP180;6856;51.460;7.158;2023-06-26T11:08:05;100514.00;;;28.60
13570;BMP180;6856;51.460;7.158;2023-06-26T11:10:49;100522.00;;;28.70
13570;BMP180;6856;51.460;7.158;2023-06-26T11:13:26;100518.00;;;28.80
13570;BMP180;6856;51.460;7.158;2023-06-26T11:16:02;100539.00;;;28.80
13570;BMP180;6856;51.460;7.158;2023-06-26T11:18:38;100525.00;;;28.90
13570;BMP180;6856;51.460;7.158;2023-06-26T11:21:12;100530.00;;;28.90
13570;BMP180;6856;51.460;7.158;2023-06-26T11:23:48;100538.00;;;28.90
13570;BMP180;6856;51.460;7.158;2023-06-26T11:26:22;100550.00;;;28.80
13570;BMP180;6856;51.460;7.158;2023-06-26T11:28:57;100556.00;;;28.80
13570;BMP180;6856;51.460;7.158;2023-06-26T11:31:33;100558.00;;;28.80
13570;BMP180;6856;51.460;7.158;2023-06-26T11:34:10;100554.00;;;28.80
13570;BMP180;6856;51.460;7.158;2023-06-26T11:36:44;100551.00;;;28.80
13570;BMP180;6856;51.460;7.158;2023-06-26T11:39:20;100556.00;;;28.80
13570;BMP180;6856;51.460;7.158;2023-06-26T11:41:54;100569.00;;;28.70
13570;BMP180;6856;51.460;7.158;2023-06-26T11:44:31;100569.00;;;28.70
13570;BMP180;6856;51.460;7.158;2023-06-26T11:47:06;100567.00;;;28.70
13570;BMP180;6856;51.460;7.158;2023-06-26T11:49:44;100561.00;;;28.60
13570;BMP180;6856;51.460;7.158;2023-06-26T11:52:18;100559.00;;;28.60
13570;BMP180;6856;51.460;7.158;2023-06-26T11:54:54;100560.00;;;28.60
13570;BMP180;6856;51.460;7.158;2023-06-26T11:57:30;100558.00;;;28.50
13570;BMP180;6856;51.460;7.158;2023-06-26T12:00:12;100566.00;;;28.50
13570;BMP180;6856;51.460;7.158;2023-06-26T12:02:46;100561.00;;;28.50
13570;BMP180;6856;51.460;7.158;2023-06-26T12:05:23;100568.00;;;28.50
13570;BMP180;6856;51.460;7.158;2023-06-26T12:07:57;100581.00;;;28.50
13570;BMP180;6856;51.460;7.158;2023-06-26T12:10:32;100587.00;;;28.50
13570;BMP180;6856;51.460;7.158;2023-06-26T12:13:07;100581.00;;;28.50
13570;BMP180;6856;51.460;7.158;2023-06-26T12:15:43;100580.00;;;28.50
13570;BMP180;6856;51.460;7.158;2023-06-26T12:18:18;100571.00;;;28.50
13570;BMP180;6856;51.460;7.158;2023-06-26T12:20:55;100570.00;;;28.50
13570;BMP180;6856;51.460;7.158;2023-06-26T12:23:33;100575.00;;;28.50
13570;BMP180;6856;51.460;7.158;2023-06-26T12:26:19;100589.00;;;28.60
13570;BMP180;6856;51.460;7.158;2023-06-26T12:28:53;100586.00;;;28.60
13570;BMP180;6856;51.460;7.158;2023-06-26T12:31:27;100581.00;;;28.60
13570;BMP180;6856;51.460;7.158;2023-06-26T12:34:01;100596.00;;;28.60
13570;BMP180;6856;51.460;7.158;2023-06-26T12:36:42;100600.00;;;28.60
13570;BMP180;6856;51.460;7.158;2023-06-26T12:39:18;100610.00;;;28.60
13570;BMP180;6856;51.460;7.158;2023-06-26T12:41:54;100609.00;;;28.60
13570;BMP180;6856;51.460;7.158;2023-06-26T12:44:31;100616.00;;;28.60
13570;BMP180;6856;51.460;7.158;2023-06-26T12:47:05;100630.00;;;28.70
13570;BMP180;6856;51.460;7.158;2023-06-26T12:49:43;100635.00;;;28.70
13570;BMP180;6856;51.460;7.158;2023-06-26T12:52:20;100633.00;;;28.70
13570;BMP180;6856;51.460;7.158;2023-06-26T12:54:55;100631.00;;;28.70
13570;BMP180;6856;51.460;7.158;2023-06-26T12:57:30;100624.00;;;28.70
13570;BMP180;6856;51.460;7.158;2023-06-26T13:00:05;100621.00;;;28.70
13570;BMP180;6856;51.460;7.158;2023-06-26T13:02:42;100627.00;;;28.60
13570;BMP180;6856;51.460;7.158;2023-06-26T13:05:17;100627.00;;;28.60
13570;BMP180;6856;51.460;7.158;2023-06-26T13:07:52;100632.00;;;28.60
13570;BMP180;6856;51.460;7.158;2023-06-26T13:10:27;100616.00;;;28.60
13570;BMP180;6856;51.460;7.158;2023-06-26T13:13:01;100618.00;;;28.60
13570;BMP180;6856;51.460;7.158;2023-06-26T13:15:38;100619.00;;;28.60
13570;BMP180;6856;51.460;7.158;2023-06-26T13:18:13;100629.00;;;28.60
13570;BMP180;6856;51.460;7.158;2023-06-26T13:20:47;100641.00;;;28.60
13570;BMP180;6856;51.460;7.158;2023-06-26T13:23:23;100632.00;;;28.50
13570;BMP180;6856;51.460;7.158;2023-06-26T13:25:57;100633.00;;;28.50
13570;BMP180;6856;51.460;7.158;2023-06-26T13:28:31;100637.00;;;28.50
13570;BMP180;6856;51.460;7.158;2023-06-26T13:31:06;100641.00;;;28.50
13570;BMP180;6856;51.460;7.158;2023-06-26T13:33:40;100644.00;;;28.50
13570;BMP180;6856;51.460;7.158;2023-06-26T13:36:14;100618.00;;;28.50
13570;BMP180;6856;51.460;7.158;2023-06-26T13:38:51;100643.00;;;28.50
13570;BMP180;6856;51.460;7.158;2023-06-26T13:41:28;100652.00;;;28.50
13570;BMP180;6856;51.460;7.158;2023-06-26T13:44:02;100653.00;;;28.50
13570;BMP180;6856;51.460;7.158;2023-06-26T13:46:57;100661.00;;;28.50
13570;BMP180;6856;51.460;7.158;2023-06-26T13:49:31;100641.00;;;28.50
13570;BMP180;6856;51.460;7.158;2023-06-26T13:52:06;100641.00;;;28.50
13570;BMP180;6856;51.460;7.158;2023-06-26T13:54:42;100646.00;;;28.50
13570;BMP180;6856;51.460;7.158;2023-06-26T13:57:16;100647.00;;;28.50
13570;BMP180;6856;51.460;7.158;2023-06-26T13:59:52;100660.00;;;28.50
13570;BMP180;6856;51.460;7.158;2023-06-26T14:02:25;100655.00;;;28.50
13570;BMP180;6856;51.460;7.158;2023-06-26T14:04:59;100655.00;;;28.40
13570;BMP180;6856;51.460;7.158;2023-06-26T14:07:33;100652.00;;;28.50
13570;BMP180;6856;51.460;7.158;2023-06-26T14:10:09;100669.00;;;28.50
13570;BMP180;6856;51.460;7.158;2023-06-26T14:12:43;100656.00;;;28.50
13570;BMP180;6856;51.460;7.158;2023-06-26T14:15:17;100662.00;;;28.50
13570;BMP180;6856;51.460;7.158;2023-06-26T14:17:51;100670.00;;;28.50
13570;BMP180;6856;51.460;7.158;2023-06-26T14:20:25;100664.00;;;28.50
13570;BMP180;6856;51.460;7.158;2023-06-26T14:22:59;100666.00;;;28.60
13570;BMP180;6856;51.460;7.158;2023-06-26T14:25:35;100677.00;;;28.60
13570;BMP180;6856;51.460;7.158;2023-06-26T14:28:09;100664.00;;;28.60
13570;BMP180;6856;51.460;7.158;2023-06-26T14:30:43;100677.00;;;28.60
13570;BMP180;6856;51.460;7.158;2023-06-26T14:33:17;100671.00;;;28.60
13570;BMP180;6856;51.460;7.158;2023-06-26T14:35:51;100664.00;;;28.50
13570;BMP180;6856;51.460;7.158;2023-06-26T14:38:26;100665.00;;;28.50
13570;BMP180;6856;51.460;7.158;2023-06-26T14:41:02;100646.00;;;28.50
13570;BMP180;6856;51.460;7.158;2023-06-26T14:43:38;100668.00;;;28.50
13570;BMP180;6856;51.460;7.158;2023-06-26T14:46:13;100668.00;;;28.50
13570;BMP180;6856;51.460;7.158;2023-06-26T14:48:48;100682.00;;;28.60
13570;BMP180;6856;51.460;7.158;2023-06-26T14:51:23;100681.00;;;28.50
13570;BMP180;6856;51.460;7.158;2023-06-26T14:53:58;100674.00;;;28.50
13570;BMP180;6856;51.460;7.158;2023-06-26T14:56:33;100670.00;;;28.50